Station: Parafield

  Atmospheric Gas Attenuation - ITU Rec 676-11   --------------- db/100km ---------------
Date Time Temp RH % AH g/m3 Dew Point Wind Direction Speed kph Gust kph Barometer mB Rainfall Since 9am 24GHz 47GHz 76GHz 122GHz 134GHz 241GHz
21 18:10 14.9 70 8.92 9.5 30 33 1006.4 0 20.2 25.8 40.2 105.7 100.6 346.5
21 18:00 14.8 71 8.99 9.6 30 46 1006.3 0 20.4 26.0 40.5 106.5 101.7 350.2
21 17:50 15.4 67 8.8 9.3 39 48 1006.2 0 19.9 25.5 39.5 103.7 98.4 338.8
21 17:40 16.2 58 8 7.9 32 43 1006.1 0 18.2 24.0 36.0 94.5 87.3 300.0
21 17:30 16.6 56 7.91 7.8 28 39 1006 0 18.0 23.8 35.5 93.1 85.7 294.6
21 17:20 17.2 54 7.91 7.8 35 43 1006 0 18.0 23.6 35.2 92.4 85.1 292.4
21 17:10 17.1 52 7.57 7.2 39 44 1005.9 0 17.3 23.1 34.0 89.1 81.0 278.2
21 17:00 17.6 53 7.95 7.9 32 43 1005.8 0 18.0 23.6 35.2 92.3 85.1 292.6
21 16:50 17.8 51 7.74 7.5 33 39 1005.7 0 17.6 23.2 34.3 90.0 82.4 282.9
21 16:40 18.2 52 8.08 8.2 24 32 1005.5 0 18.3 23.6 35.4 92.9 86.0 295.8
21 16:30 17.2 54 7.91 7.8 28 39 1005.5 0 18.0 23.6 35.2 92.3 85.1 292.3
21 16:20 17.6 53 7.95 7.9 30 35 1005.3 0 18.0 23.5 35.2 92.3 85.1 292.5
21 16:10 17.3 54 7.95 7.9 37 43 1005.3 0 18.1 23.6 35.3 92.6 85.4 293.6
21 16:00 17.6 56 8.4 8.7 28 39 1005.3 0 19.0 24.2 36.9 96.7 90.6 311.8
21 15:50 17.9 56 8.55 9 24 28 1005.3 0 19.3 24.4 37.3 97.9 92.1 317.1
21 15:40 17.5 56 8.35 8.6 26 28 1005.2 0 18.9 24.2 36.7 96.4 90.1 310.0
21 15:30 17.9 57 8.7 9.3 26 39 1005.3 0 19.6 24.6 37.8 99.4 94.0 323.7
21 15:20 17.8 58 8.8 9.4 19 22 1005.2 0 19.8 24.8 38.3 100.5 95.4 328.4
21 15:10 17.6 56 8.4 8.7 26 32 1005.2 0 19.0 24.2 36.8 96.7 90.6 311.8
21 15:00 17.4 59 8.74 9.3 26 35 1005.2 0 19.7 24.8 38.2 100.4 95.1 327.5
21 14:50 17.3 61 8.99 9.7 30 35 1005.3 0 20.3 25.2 39.2 103.1 98.4 339.0
21 14:40 16.7 68 9.66 10.8 20 24 1005.4 0 21.7 26.5 42.2 111.0 107.8 371.9
21 14:30 17.9 53 8.09 8.2 22 28 1005.3 0 18.3 23.7 35.6 93.3 86.5 297.3
21 14:20 18.8 49 7.89 7.9 24 30 1005.3 0 17.9 23.2 34.4 90.3 83.1 285.6
21 14:10 19.1 49 8.03 8.1 35 41 1005.4 0 18.1 23.3 34.8 91.3 84.5 290.4
21 14:00 18.7 50 8 8.1 26 35 1005.4 0 18.1 23.3 34.9 91.5 84.5 290.6
21 13:50 18.1 50 7.72 7.5 26 35 1005.4 0 17.5 23.1 34.1 89.5 81.8 281.0
21 13:40 18.6 47 7.48 7.1 32 39 1005.4 0 17.0 22.6 33.0 86.6 78.4 269.2
21 13:30 18.7 47 7.52 7.2 32 43 1005.5 0 17.1 22.6 33.2 86.9 78.8 270.6
21 13:20 19.9 44 7.56 7.3 32 35 1005.4 0 17.1 22.4 32.8 86.0 78.1 268.2
21 13:10 19.9 43 7.39 7 35 44 1005.6 0 16.8 22.2 32.2 84.4 76.1 261.3
21 13:00 18.7 46 7.36 6.9 37 52 1005.6 0 16.7 22.4 32.6 85.4 76.9 264.0
21 12:50 18.8 45 7.25 6.6 37 44 1005.6 0 16.5 22.2 32.2 84.2 75.6 259.2
21 12:40 20 42 7.26 6.7 44 54 1005.6 0 16.5 22.0 31.7 83.1 74.5 255.8
21 12:30 19.1 44 7.21 6.6 37 63 1005.6 0 16.4 22.1 31.9 83.5 74.8 256.6
21 12:20 17.9 45 6.87 5.8 37 46 1005.6 0 15.7 21.9 31.2 81.5 72.0 246.4
21 12:10 19.6 40 6.75 5.6 35 46 1005.7 0 15.4 21.3 30.1 78.8 69.1 236.6
21 12:00 18.8 36 5.8 3.4 44 65 1005.6 0 13.5 20.2 27.2 70.9 59.1 201.3
21 11:50 19.5 38 6.38 4.8 37 43 1005.6 0 14.7 20.8 28.9 75.5 65.0 222.2
21 11:40 19.7 34 5.77 3.4 43 52 1005.6 0 13.4 20.0 26.8 69.8 58.1 198.0
21 11:30 19.4 34 5.67 3.2 44 65 1005.7 0 13.2 19.9 26.6 69.2 57.2 194.9
21 11:20 20 34 5.88 3.7 32 39 1005.7 0 13.6 20.1 27.0 70.6 59.1 201.5
21 11:10 19.4 33 5.51 2.7 39 50 1005.7 0 12.8 19.7 26.0 67.8 55.5 188.8
21 11:00 18.9 33 5.35 2.3 46 63 1005.6 0 12.5 19.6 25.7 66.8 54.1 183.8
21 10:50 18.8 33 5.31 2.2 44 63 1005.6 0 12.4 19.6 25.6 66.5 53.7 182.5
21 10:40 19 32 5.21 2 39 48 1005.6 0 12.2 19.4 25.2 65.5 52.5 178.3
21 10:30 18.8 31 4.99 1.3 44 63 1005.5 0 11.8 19.1 24.5 63.8 50.3 170.4
21 10:20 19.4 30 5 1.4 33 39 1005.5 0 11.8 19.0 24.4 63.4 50.0 169.6
21 10:10 19 31 5.05 1.5 33 39 1005.4 0 11.9 19.2 24.6 64.1 50.8 172.2
21 10:00 18.5 31 4.9 1.1 37 52 1005.3 0 11.6 19.1 24.3 63.2 49.5 167.6
21 09:50 18.1 32 4.94 1.2 32 43 1005.2 0 11.7 19.2 24.5 63.8 50.2 169.9
21 09:40 17.7 29 4.38 -0.5 43 50 1005.2 0 10.5 18.5 22.9 59.3 44.4 149.7
21 09:30 17.5 32 4.77 0.6 32 44 1005.2 0 11.3 19.1 24.2 62.8 48.7 164.7
21 09:20 17.1 34 4.95 1.1 33 44 1005.3 0 11.7 19.4 24.9 64.7 50.9 172.4
21 09:10 16.6 35 4.94 1.1 26 37 1005.5 0 11.7 19.5 25.0 65.0 51.1 173.1
21 09:00 16.3 37 5.13 1.6 32 43 1005.7 0 12.1 19.8 25.7 67.0 53.4 181.1
21 08:50 16 40 5.45 2.4 24 32 1005.6 4 12.8 20.3 26.9 70.1 57.2 194.4
21 08:40 15.4 44 5.78 3.2 22 26 1005.7 4 13.5 20.9 28.2 73.7 61.4 209.1
21 08:30 14.7 48 6.04 3.8 19 24 1005.7 4 14.1 21.5 29.4 76.8 65.0 221.6
21 08:20 14 53 6.39 4.6 15 20 1005.8 4 14.9 22.2 30.9 80.9 69.8 238.2
21 08:10 13.1 54 6.16 4 24 30 1005.8 4 14.4 22.0 30.4 79.5 67.8 231.1
21 08:00 12.6 59 6.53 4.8 17 22 1005.8 4 15.2 22.7 32.0 83.7 72.7 248.4
21 07:50 11.9 61 6.46 4.6 19 20 1005.9 4 15.1 22.8 32.0 83.7 72.5 247.6
21 07:40 11.4 62 6.36 4.4 17 19 1006.2 4 14.9 22.8 31.8 83.3 71.7 244.8
21 07:30 11 63 6.31 4.2 20 28 1006.2 4 14.8 22.8 31.8 83.2 71.5 243.9
21 07:20 10.8 65 6.43 4.5 20 24 1006.1 4 15.1 23.0 32.3 84.6 73.2 249.8
21 07:10 10.3 67 6.42 4.5 13 17 1006.1 4 15.1 23.1 32.5 85.1 73.5 250.9
21 07:00 10.2 68 6.47 4.6 19 26 1006.2 4 15.2 23.2 32.7 85.7 74.2 253.5
21 06:50 9.5 71 6.46 4.5 20 24 1006.2 4 15.2 23.4 33.0 86.3 74.8 255.3
21 06:40 8.7 78 6.75 5.1 13 17 1006.3 4 15.9 24.1 34.5 90.3 79.3 271.1
21 06:30 8.1 81 6.74 5 15 20 1006.3 4 15.9 24.2 34.7 90.9 79.8 272.8
21 06:20 8 82 6.78 5.1 17 19 1006.2 4 15.9 24.3 34.9 91.4 80.4 274.9
21 06:10 8 83 6.86 5.3 13 15 1006.2 4 16.1 24.4 35.2 92.3 81.5 278.7
21 06:00 8.1 82 6.83 5.2 11 22 1006.2 4 16.0 24.4 35.1 91.8 81.0 276.9
21 05:50 8.4 82 6.96 5.5 17 19 1006.2 4 16.3 24.5 35.4 92.9 82.4 281.9
21 05:40 8.8 82 7.14 5.9 13 15 1006.2 4 16.7 24.7 36.0 94.3 84.4 288.8
21 05:30 9.2 81 7.24 6.1 17 22 1006.2 4 16.9 24.7 36.2 94.9 85.3 292.0
21 05:20 9.8 79 7.33 6.3 13 15 1006.2 4 17.1 24.7 36.3 95.2 85.8 294.0
21 05:10 10 79 7.43 6.5 15 17 1006.1 4 17.3 24.8 36.6 96.0 86.9 297.8
21 04:50 9.2 82 7.32 6.3 11 13 1006.1 4 17.1 24.9 36.5 95.8 86.3 295.7
21 04:40 9.3 83 7.46 6.6 11 13 1006.1 4 17.4 25.1 37.1 97.2 88.1 301.9
21 04:30 9.3 81 7.28 6.2 11 15 1006 4 17.0 24.8 36.3 95.2 85.7 293.5
21 04:20 9.8 78 7.24 6.2 13 15 1006 4 16.9 24.6 35.9 94.2 84.6 289.7
21 04:10 10.9 69 6.86 5.4 13 15 1006.1 4 16.0 23.7 34.0 88.9 78.5 268.6
21 04:00 12.3 65 7.06 5.9 17 26 1006.1 4 16.4 23.6 34.1 89.4 79.7 272.7
21 03:50 12.2 66 7.12 6 19 20 1006 4 16.5 23.7 34.4 90.1 80.5 275.7
21 03:40 12 68 7.25 6.3 13 15 1006.1 4 16.8 24.0 35.0 91.7 82.4 282.2
21 03:30 12 68 7.25 6.3 15 22 1006.1 4 16.8 24.0 35.0 91.7 82.4 282.2
21 03:20 12.3 66 7.17 6.1 19 20 1005.9 4 16.6 23.8 34.6 90.5 81.0 277.6
21 03:10 12.1 66 7.08 5.9 19 20 1005.9 4 16.4 23.7 34.3 89.8 80.1 274.2
21 03:00 12.2 65 7.01 5.8 17 24 1005.8 4 16.3 23.5 34.0 89.0 79.1 270.8
21 02:50 12.5 65 7.15 6.1 19 20 1006 4 16.6 23.7 34.4 90.1 80.6 276.0
21 02:40 12.1 68 7.29 6.4 19 24 1006 4 16.9 24.0 35.1 92.0 82.8 283.7
21 02:30 12.3 70 7.6 7 17 22 1006 4 17.5 24.4 36.2 95.0 86.5 296.9
21 02:20 12.5 67 7.37 6.5 17 20 1006.2 4 17.0 24.0 35.2 92.4 83.4 285.8
21 02:10 12.6 68 7.52 6.9 17 17 1006.4 4 17.3 24.3 35.8 93.9 85.2 292.3
21 02:00 12.6 67 7.41 6.6 19 26 1006.5 4 17.1 24.1 35.4 92.7 83.8 287.3
21 01:50 12.9 64 7.21 6.3 19 20 1006.6 4 16.7 23.7 34.5 90.3 81.0 277.4
21 01:40 13.1 65 7.42 6.7 26 30 1006.6 3.8 17.1 24.0 35.2 92.3 83.4 286.0
21 01:30 13.2 66 7.58 7 22 33 1006.8 3.8 17.4 24.2 35.8 93.8 85.4 292.8

Last Refresh: 21-Sep-2020 18:18:46

Most of the information presented on this site is sourced from the Bureau of Meteorology.  Copyright in all material sourced from the Bureau of Meteorology resides with the Commonwealth of Australia.